createdAt,value
2018-09-19T00:01:52.594Z,15.97
2018-09-19T00:04:57.534Z,15.91
2018-09-19T00:08:02.135Z,15.93
2018-09-19T00:11:07.019Z,15.87
2018-09-19T00:14:12.139Z,15.83
2018-09-19T00:17:16.909Z,15.88
2018-09-19T00:20:22.589Z,15.84
2018-09-19T00:23:27.067Z,15.73
2018-09-19T00:26:31.809Z,15.72
2018-09-19T00:29:36.357Z,15.70
2018-09-19T00:32:41.029Z,15.57
2018-09-19T00:35:45.651Z,15.51
2018-09-19T00:38:50.236Z,15.54
2018-09-19T00:41:56.414Z,15.44
2018-09-19T00:45:01.003Z,15.36
2018-09-19T00:48:05.611Z,15.32
2018-09-19T00:51:10.320Z,15.29
2018-09-19T00:54:15.010Z,15.29
2018-09-19T00:57:19.714Z,15.19
2018-09-19T01:00:24.334Z,15.10
2018-09-19T01:03:29.003Z,15.07
2018-09-19T01:06:33.684Z,15.07
2018-09-19T01:09:38.431Z,14.99
2018-09-19T01:12:43.045Z,14.99
2018-09-19T01:15:47.676Z,14.99
2018-09-19T01:18:52.525Z,14.93
2018-09-19T01:21:57.202Z,14.90
2018-09-19T01:25:01.927Z,14.87
2018-09-19T01:28:06.555Z,14.83
2018-09-19T01:31:11.182Z,14.81
2018-09-19T01:34:15.992Z,14.74
2018-09-19T01:37:20.606Z,14.73
2018-09-19T01:40:25.426Z,14.67
2018-09-19T01:43:30.045Z,14.68
2018-09-19T01:46:35.098Z,14.60
2018-09-19T01:49:39.797Z,14.63
2018-09-19T01:52:44.644Z,14.60
2018-09-19T01:55:49.384Z,14.65
2018-09-19T01:58:54.001Z,14.60
2018-09-19T02:01:58.597Z,14.50
2018-09-19T02:05:03.264Z,14.45
2018-09-19T02:08:08.026Z,14.38
2018-09-19T02:11:12.820Z,14.36
2018-09-19T02:14:17.414Z,14.33
2018-09-19T02:17:22.099Z,14.35
2018-09-19T02:20:26.852Z,14.32
2018-09-19T02:23:31.523Z,14.31
2018-09-19T02:26:36.260Z,14.23
2018-09-19T02:29:40.990Z,14.17
2018-09-19T02:32:45.967Z,14.14
2018-09-19T02:35:50.542Z,14.18
2018-09-19T02:38:57.240Z,14.17
2018-09-19T02:42:02.123Z,14.11
2018-09-19T02:45:06.886Z,14.12
2018-09-19T02:48:11.540Z,14.09
2018-09-19T02:51:17.033Z,14.12
2018-09-19T02:54:21.787Z,14.11
2018-09-19T02:57:26.462Z,14.18
2018-09-19T03:00:31.219Z,14.08
2018-09-19T03:03:36.028Z,14.05
2018-09-19T03:06:40.716Z,13.92
2018-09-19T03:09:45.398Z,14.01
2018-09-19T03:12:50.415Z,13.85
2018-09-19T03:15:55.008Z,13.87
2018-09-19T03:18:59.614Z,13.83
2018-09-19T03:22:04.425Z,13.84
2018-09-19T03:25:09.005Z,13.81
2018-09-19T03:28:13.603Z,13.73
2018-09-19T03:31:18.301Z,13.72
2018-09-19T03:34:22.941Z,13.72
2018-09-19T03:37:27.702Z,13.77
2018-09-19T03:40:32.797Z,13.87
2018-09-19T03:43:37.341Z,13.74
2018-09-19T03:46:42.079Z,13.79
2018-09-19T03:49:46.689Z,13.68
2018-09-19T03:52:51.328Z,13.69
2018-09-19T03:55:56.118Z,13.54
2018-09-19T03:59:00.724Z,13.52
2018-09-19T04:02:05.382Z,13.58
2018-09-19T04:05:10.127Z,13.54
2018-09-19T04:08:14.761Z,13.48
2018-09-19T04:11:19.390Z,13.46
2018-09-19T04:14:23.962Z,13.47
2018-09-19T04:17:28.674Z,13.54
2018-09-19T04:20:33.442Z,13.51
2018-09-19T04:23:38.002Z,13.50
2018-09-19T04:26:42.606Z,13.54
2018-09-19T04:29:47.168Z,13.44
2018-09-19T04:32:51.801Z,13.47
2018-09-19T04:35:56.397Z,13.50
2018-09-19T04:39:00.949Z,13.47
2018-09-19T04:42:05.592Z,13.50
2018-09-19T04:45:10.247Z,13.54
2018-09-19T04:48:14.940Z,13.63
2018-09-19T04:51:19.793Z,13.55
2018-09-19T04:54:24.508Z,13.50
2018-09-19T04:57:29.173Z,13.54
2018-09-19T05:00:33.763Z,13.55
2018-09-19T05:03:38.420Z,13.49
2018-09-19T05:06:43.174Z,13.42
2018-09-19T05:09:47.759Z,13.35
2018-09-19T05:12:52.383Z,13.31
2018-09-19T05:15:56.989Z,13.26
2018-09-19T05:19:01.638Z,13.25
2018-09-19T05:22:06.232Z,13.29
2018-09-19T05:25:10.868Z,13.40
2018-09-19T05:28:15.784Z,13.60
2018-09-19T05:31:20.344Z,13.88
2018-09-19T05:34:25.031Z,14.01
2018-09-19T05:37:29.587Z,14.14
2018-09-19T05:40:34.219Z,14.32
2018-09-19T05:43:38.961Z,14.38
2018-09-19T05:46:43.593Z,14.46
2018-09-19T05:49:48.301Z,14.54
2018-09-19T05:52:53.173Z,14.73
2018-09-19T05:55:57.832Z,14.87
2018-09-19T05:59:02.469Z,15.15
2018-09-19T06:02:07.192Z,15.17
2018-09-19T06:05:11.907Z,15.24
2018-09-19T06:08:16.841Z,15.03
2018-09-19T06:11:21.603Z,15.05
2018-09-19T06:14:26.173Z,15.14
2018-09-19T06:17:31.184Z,15.21
2018-09-19T06:20:35.821Z,15.30
2018-09-19T06:23:40.463Z,15.49
2018-09-19T06:26:45.108Z,15.40
2018-09-19T06:29:49.692Z,15.44
2018-09-19T06:32:54.369Z,15.57
2018-09-19T06:35:58.888Z,16.10
2018-09-19T06:39:03.897Z,16.16
2018-09-19T06:42:08.564Z,16.22
2018-09-19T06:45:13.165Z,16.28
2018-09-19T06:48:17.828Z,16.36
2018-09-19T06:51:22.661Z,16.61
2018-09-19T06:54:27.373Z,16.99
2018-09-19T06:57:32.105Z,17.08
2018-09-19T07:00:36.742Z,17.61
2018-09-19T07:03:41.547Z,17.25
2018-09-19T07:06:46.165Z,17.58
2018-09-19T07:09:50.750Z,17.94
2018-09-19T07:12:55.355Z,17.88
2018-09-19T07:15:59.967Z,17.61
2018-09-19T07:19:04.764Z,18.05
2018-09-19T07:22:09.462Z,18.49
2018-09-19T07:25:14.112Z,18.53
2018-09-19T07:28:18.791Z,18.66
2018-09-19T07:31:23.356Z,18.76
2018-09-19T07:34:28.186Z,18.92
2018-09-19T07:37:32.781Z,19.02
2018-09-19T07:40:37.471Z,18.87
2018-09-19T07:43:42.407Z,19.03
2018-09-19T07:46:47.114Z,19.52
2018-09-19T07:49:51.835Z,19.41
2018-09-19T07:52:56.488Z,19.35
2018-09-19T07:56:01.201Z,19.82
2018-09-19T07:59:05.792Z,20.14
2018-09-19T08:02:10.754Z,20.05
2018-09-19T08:05:15.490Z,20.43
2018-09-19T08:08:20.440Z,20.39
2018-09-19T08:11:25.072Z,20.69
2018-09-19T08:14:29.693Z,20.84
2018-09-19T08:17:34.227Z,21.40
2018-09-19T08:20:38.944Z,21.26
2018-09-19T08:23:43.541Z,21.82
2018-09-19T08:26:48.167Z,21.97
2018-09-19T08:29:52.915Z,21.97
2018-09-19T08:32:57.744Z,21.98
2018-09-19T08:36:02.404Z,21.98
2018-09-19T08:39:09.788Z,22.08
2018-09-19T08:42:14.477Z,21.69
2018-09-19T08:45:19.437Z,22.37
2018-09-19T08:48:24.275Z,22.86
2018-09-19T08:51:28.876Z,23.03
2018-09-19T08:54:33.651Z,23.31
2018-09-19T08:57:38.315Z,23.47
2018-09-19T09:00:43.024Z,23.91
2018-09-19T09:03:47.718Z,24.15
2018-09-19T09:06:52.443Z,24.22
2018-09-19T09:09:57.064Z,24.65
2018-09-19T09:13:01.772Z,24.88
2018-09-19T09:16:06.636Z,25.00
2018-09-19T09:19:11.261Z,25.36
2018-09-19T09:22:15.895Z,25.33
2018-09-19T09:25:20.614Z,25.72
2018-09-19T09:28:25.279Z,25.91
2018-09-19T09:31:30.070Z,25.84
2018-09-19T09:34:34.670Z,26.20
2018-09-19T09:37:39.498Z,26.12
2018-09-19T09:40:44.080Z,26.10
2018-09-19T09:43:48.640Z,26.50
2018-09-19T09:46:53.298Z,26.93
2018-09-19T09:49:57.954Z,27.46
2018-09-19T09:53:02.696Z,27.60
2018-09-19T09:56:07.653Z,27.77
2018-09-19T09:59:12.360Z,27.42
2018-09-19T10:02:17.247Z,26.72
2018-09-19T10:05:22.299Z,27.03
2018-09-19T10:08:35.236Z,27.32
2018-09-19T10:11:40.671Z,27.69
2018-09-19T10:14:45.307Z,27.65
2018-09-19T10:17:49.967Z,27.99
2018-09-19T10:21:37.557Z,27.83
2018-09-19T10:24:42.352Z,27.95
2018-09-19T10:27:47.147Z,28.09
2018-09-19T10:30:51.759Z,27.61
2018-09-19T10:33:56.470Z,27.75
2018-09-19T10:37:01.321Z,27.71
2018-09-19T10:40:06.874Z,27.80
2018-09-19T10:43:11.524Z,28.11
2018-09-19T10:46:16.736Z,27.63
2018-09-19T10:49:21.578Z,27.60
2018-09-19T10:52:51.366Z,27.40
2018-09-19T10:55:56.539Z,28.22
2018-09-19T10:59:01.805Z,28.27
2018-09-19T11:02:06.715Z,28.38
2018-09-19T11:05:11.612Z,28.64
2018-09-19T11:08:16.620Z,28.50
2018-09-19T11:11:21.921Z,28.43
2018-09-19T11:14:26.507Z,28.54
2018-09-19T11:17:31.323Z,29.23
2018-09-19T11:20:35.852Z,29.00
2018-09-19T11:23:41.688Z,29.45
2018-09-19T11:26:46.486Z,29.13
2018-09-19T11:29:51.202Z,29.49
2018-09-19T11:32:55.813Z,29.57
2018-09-19T11:36:00.427Z,29.35
2018-09-19T11:39:08.533Z,29.38
2018-09-19T11:42:13.462Z,29.30
2018-09-19T11:45:18.013Z,29.77
2018-09-19T11:48:22.727Z,29.53
2018-09-19T11:51:27.347Z,29.69
2018-09-19T11:54:32.027Z,30.21
2018-09-19T11:57:36.676Z,30.39
2018-09-19T12:00:41.285Z,30.42
2018-09-19T12:03:45.828Z,30.20
2018-09-19T12:06:50.772Z,30.14
2018-09-19T12:09:55.455Z,30.64
2018-09-19T12:13:00.080Z,30.67
2018-09-19T12:16:04.761Z,30.38
2018-09-19T12:19:09.488Z,30.20
2018-09-19T12:22:14.142Z,30.61
2018-09-19T12:25:18.755Z,30.64
2018-09-19T12:28:23.364Z,30.87
2018-09-19T12:31:28.132Z,30.68
2018-09-19T12:34:32.695Z,30.85
2018-09-19T12:37:37.517Z,31.06
2018-09-19T12:40:42.179Z,30.83
2018-09-19T12:43:46.848Z,30.34
2018-09-19T12:46:51.466Z,30.12
2018-09-19T12:49:56.016Z,30.51
2018-09-19T12:53:01.887Z,30.67
2018-09-19T12:56:06.526Z,30.82
2018-09-19T12:59:11.284Z,31.32
2018-09-19T13:02:15.824Z,31.12
2018-09-19T13:05:20.470Z,30.77
2018-09-19T13:08:25.074Z,30.46
2018-09-19T13:11:29.741Z,30.82
2018-09-19T13:14:34.414Z,30.93
2018-09-19T13:17:39.136Z,31.05
2018-09-19T13:20:44.344Z,31.30
2018-09-19T13:23:49.021Z,30.84
2018-09-19T13:26:53.857Z,30.17
2018-09-19T13:29:58.457Z,30.06
2018-09-19T13:33:03.267Z,30.26
2018-09-19T13:36:07.900Z,30.42
2018-09-19T13:39:13.467Z,30.83
2018-09-19T13:42:18.088Z,30.98
2018-09-19T13:45:22.704Z,31.29
2018-09-19T13:48:27.940Z,31.18
2018-09-19T13:51:32.507Z,31.15
2018-09-19T13:54:37.209Z,31.54
2018-09-19T13:57:41.847Z,31.18
2018-09-19T14:00:46.395Z,31.28
2018-09-19T14:03:51.146Z,31.36
2018-09-19T14:06:55.863Z,30.81
2018-09-19T14:10:00.420Z,30.21
2018-09-19T14:13:47.417Z,30.21
2018-09-19T14:16:52.098Z,30.22
2018-09-19T14:19:56.645Z,30.56
2018-09-19T14:23:01.355Z,30.55
2018-09-19T14:26:06.106Z,30.68
2018-09-19T14:29:10.766Z,30.16
2018-09-19T14:32:15.389Z,30.42
2018-09-19T14:35:20.220Z,30.59
2018-09-19T14:38:25.010Z,30.64
2018-09-19T14:41:29.756Z,30.42
2018-09-19T14:44:34.308Z,30.43
2018-09-19T14:47:38.978Z,30.34
2018-09-19T14:50:44.459Z,30.33
2018-09-19T14:53:49.143Z,30.59
2018-09-19T14:56:53.816Z,30.69
2018-09-19T14:59:58.489Z,30.69
2018-09-19T15:03:03.191Z,30.36
2018-09-19T15:06:08.005Z,30.41
2018-09-19T15:09:12.747Z,30.09
2018-09-19T15:12:17.411Z,30.16
2018-09-19T15:15:22.122Z,29.82
2018-09-19T15:18:26.841Z,29.72
2018-09-19T15:21:31.982Z,29.61
2018-09-19T15:24:36.697Z,29.31
2018-09-19T15:27:41.228Z,29.37
2018-09-19T15:30:45.859Z,29.33
2018-09-19T15:33:50.483Z,29.27
2018-09-19T15:36:55.216Z,29.15
2018-09-19T15:39:59.980Z,29.11
2018-09-19T15:43:04.579Z,28.86
2018-09-19T15:46:09.218Z,28.74
2018-09-19T15:49:14.110Z,28.48
2018-09-19T15:52:18.763Z,28.44
2018-09-19T15:55:23.733Z,28.38
2018-09-19T15:58:28.577Z,28.22
2018-09-19T16:01:33.519Z,28.18
2018-09-19T16:04:38.268Z,27.96
2018-09-19T16:07:43.187Z,27.74
2018-09-19T16:10:48.415Z,27.60
2018-09-19T16:13:53.527Z,27.59
2018-09-19T16:16:58.525Z,27.23
2018-09-19T16:20:03.629Z,27.16
2018-09-19T16:23:08.563Z,26.90
2018-09-19T16:26:13.691Z,26.88
2018-09-19T16:29:18.672Z,26.95
2018-09-19T16:32:23.584Z,27.00
2018-09-19T16:35:28.541Z,27.10
2018-09-19T16:38:34.179Z,26.91
2018-09-19T16:41:38.813Z,26.69
2018-09-19T16:44:43.547Z,26.55
2018-09-19T16:47:48.278Z,26.37
2018-09-19T16:50:53.263Z,26.10
2018-09-19T16:53:59.458Z,25.83
2018-09-19T16:57:04.307Z,25.77
2018-09-19T17:00:09.641Z,25.55
2018-09-19T17:03:14.974Z,25.52
2018-09-19T17:06:19.736Z,25.33
2018-09-19T17:09:24.396Z,25.31
2018-09-19T17:12:29.089Z,25.04
2018-09-19T17:15:33.833Z,25.01
2018-09-19T17:18:38.361Z,24.89
2018-09-19T17:21:42.916Z,24.76
2018-09-19T17:24:47.667Z,24.43
2018-09-19T17:27:52.244Z,24.14
2018-09-19T17:30:57.255Z,23.93
2018-09-19T17:34:01.882Z,23.73
2018-09-19T17:37:06.813Z,23.57
2018-09-19T17:40:11.516Z,23.42
2018-09-19T17:43:16.145Z,23.12
2018-09-19T17:46:21.013Z,22.88
2018-09-19T17:49:25.729Z,22.69
2018-09-19T17:52:30.509Z,22.54
2018-09-19T17:55:35.185Z,22.36
2018-09-19T17:58:39.845Z,22.22
2018-09-19T18:01:44.689Z,22.13
2018-09-19T18:04:49.401Z,22.09
2018-09-19T18:07:54.065Z,22.11
2018-09-19T18:10:58.955Z,21.89
2018-09-19T18:14:03.834Z,21.90
2018-09-19T18:17:08.633Z,21.72
2018-09-19T18:20:13.492Z,21.65
2018-09-19T18:23:18.437Z,21.56
2018-09-19T18:26:23.344Z,21.36
2018-09-19T18:29:28.080Z,21.35
2018-09-19T18:32:33.199Z,21.18
2018-09-19T18:35:38.083Z,21.09
2018-09-19T18:38:42.775Z,20.90
2018-09-19T18:41:47.928Z,20.76
2018-09-19T18:44:52.989Z,20.76
2018-09-19T18:47:57.684Z,20.59
2018-09-19T18:51:02.526Z,20.56
2018-09-19T18:54:07.277Z,20.51
2018-09-19T18:57:12.215Z,20.53
2018-09-19T19:00:17.438Z,20.48
2018-09-19T19:03:22.100Z,20.31
2018-09-19T19:06:27.137Z,20.19
2018-09-19T19:09:31.758Z,19.97
2018-09-19T19:12:36.444Z,19.98
2018-09-19T19:15:41.234Z,19.85
2018-09-19T19:18:46.112Z,19.77
2018-09-19T19:21:50.925Z,19.68
2018-09-19T19:24:55.504Z,19.57
2018-09-19T19:28:00.332Z,19.67
2018-09-19T19:31:04.881Z,19.62
2018-09-19T19:34:09.480Z,19.54
2018-09-19T19:37:14.385Z,19.37
2018-09-19T19:40:19.029Z,19.35
2018-09-19T19:43:23.658Z,19.20
2018-09-19T19:46:28.542Z,19.16
2018-09-19T19:49:33.176Z,19.12
2018-09-19T19:52:38.069Z,19.07
2018-09-19T19:55:42.683Z,19.02
2018-09-19T19:58:47.427Z,18.90
2018-09-19T20:01:52.069Z,18.89
2018-09-19T20:04:57.695Z,18.88
2018-09-19T20:08:02.314Z,18.84
2018-09-19T20:11:07.471Z,18.81
2018-09-19T20:14:12.213Z,18.79
2018-09-19T20:17:17.594Z,18.77
2018-09-19T20:20:22.680Z,18.57
2018-09-19T20:23:27.428Z,18.43
2018-09-19T20:26:32.053Z,18.43
2018-09-19T20:29:36.670Z,18.30
2018-09-19T20:32:41.373Z,18.31
2018-09-19T20:35:46.231Z,18.20
2018-09-19T20:38:50.965Z,18.17
2018-09-19T20:41:57.598Z,18.10
2018-09-19T20:45:02.415Z,18.09
2018-09-19T20:48:07.058Z,17.95
2018-09-19T20:51:11.856Z,17.83
2018-09-19T20:54:16.966Z,17.78
2018-09-19T20:57:21.734Z,17.70
2018-09-19T21:00:26.311Z,17.57
2018-09-19T21:03:31.252Z,17.51
2018-09-19T21:06:35.861Z,17.54
2018-09-19T21:09:40.539Z,17.55
2018-09-19T21:12:45.119Z,17.51
2018-09-19T21:15:49.804Z,17.50
2018-09-19T21:18:54.461Z,17.51
2018-09-19T21:21:59.115Z,17.40
2018-09-19T21:25:03.740Z,17.34
2018-09-19T21:28:08.419Z,17.24
2018-09-19T21:31:12.987Z,17.24
2018-09-19T21:34:18.061Z,17.20
2018-09-19T21:37:22.902Z,17.24
2018-09-19T21:40:27.803Z,17.16
2018-09-19T21:43:32.365Z,17.07
2018-09-19T21:46:37.131Z,17.02
2018-09-19T21:49:41.766Z,16.92
2018-09-19T21:52:46.589Z,16.88
2018-09-19T21:55:51.289Z,16.81
2018-09-19T21:58:55.912Z,16.77
2018-09-19T22:02:01.588Z,16.80
2018-09-19T22:05:06.283Z,16.74
2018-09-19T22:08:10.979Z,16.65
2018-09-19T22:11:15.544Z,16.59
2018-09-19T22:14:20.541Z,16.59
2018-09-19T22:17:26.317Z,16.50
2018-09-19T22:20:30.969Z,16.52
2018-09-19T22:23:35.625Z,16.43
2018-09-19T22:26:40.505Z,16.35
2018-09-19T22:29:45.415Z,16.28
2018-09-19T22:32:50.406Z,16.31
2018-09-19T22:35:55.470Z,16.34
2018-09-19T22:39:00.152Z,16.25
2018-09-19T22:42:04.837Z,16.23
2018-09-19T22:45:09.572Z,16.23
2018-09-19T22:48:14.202Z,16.21
2018-09-19T22:51:19.035Z,16.16
2018-09-19T22:54:23.742Z,16.19
2018-09-19T22:57:28.390Z,16.08
2018-09-19T23:00:33.276Z,16.04
2018-09-19T23:03:38.218Z,15.96
2018-09-19T23:06:42.795Z,15.97
2018-09-19T23:09:47.342Z,15.86
2018-09-19T23:12:52.075Z,15.84
2018-09-19T23:15:56.817Z,15.81
2018-09-19T23:19:01.665Z,15.83
2018-09-19T23:22:06.439Z,15.73
2018-09-19T23:25:11.141Z,15.67
2018-09-19T23:28:15.776Z,15.73
2018-09-19T23:31:20.512Z,15.70
2018-09-19T23:34:25.407Z,15.62
2018-09-19T23:37:30.120Z,15.59
2018-09-19T23:40:35.624Z,15.54
2018-09-19T23:43:40.350Z,15.49
2018-09-19T23:46:44.973Z,15.56
2018-09-19T23:49:49.528Z,15.47
2018-09-19T23:52:54.221Z,15.42
2018-09-19T23:55:58.987Z,15.38
2018-09-19T23:59:03.547Z,15.40
